createdAt,value
2023-03-06T00:00:21.160Z,2.72
2023-03-06T00:02:52.145Z,3.45
2023-03-06T00:05:21.137Z,2.53
2023-03-06T00:07:49.296Z,3.58
2023-03-06T00:10:19.153Z,3.50
2023-03-06T00:12:47.493Z,5.88
2023-03-06T00:15:18.578Z,2.70
2023-03-06T00:17:47.820Z,2.70
2023-03-06T00:20:17.997Z,3.23
2023-03-06T00:25:15.291Z,3.47
2023-03-06T00:27:43.384Z,2.13
2023-03-06T00:30:14.098Z,3.97
2023-03-06T00:32:42.410Z,4.47
2023-03-06T00:35:11.268Z,7.35
2023-03-06T00:37:41.426Z,2.92
2023-03-06T00:40:15.174Z,3.15
2023-03-06T00:42:43.355Z,4.05
2023-03-06T00:45:12.423Z,4.60
2023-03-06T00:47:40.486Z,3.88
2023-03-06T00:50:10.212Z,1.98
2023-03-06T00:52:38.284Z,2.78
2023-03-06T00:55:08.923Z,3.28
2023-03-06T00:57:37.184Z,3.05
2023-03-06T01:00:06.953Z,3.13
2023-03-06T01:02:35.143Z,2.53
2023-03-06T01:05:03.374Z,3.50
2023-03-06T01:07:34.083Z,3.42
2023-03-06T01:10:02.060Z,5.03
2023-03-06T01:12:31.526Z,3.35
2023-03-06T01:14:59.669Z,4.00
2023-03-06T01:17:27.776Z,2.65
2023-03-06T01:19:55.775Z,5.45
2023-03-06T01:22:24.252Z,1.88
2023-03-06T01:24:52.251Z,5.65
2023-03-06T01:27:20.278Z,6.43
2023-03-06T01:29:49.732Z,6.60
2023-03-06T01:32:17.738Z,3.13
2023-03-06T01:34:45.747Z,2.30
2023-03-06T01:37:13.913Z,2.92
2023-03-06T01:39:41.983Z,4.45
2023-03-06T01:42:10.293Z,6.07
2023-03-06T01:44:38.380Z,3.30
2023-03-06T01:47:07.826Z,2.70
2023-03-06T01:49:39.233Z,3.20
2023-03-06T01:52:10.228Z,8.95
2023-03-06T01:54:43.176Z,2.15
2023-03-06T01:57:14.707Z,5.40
2023-03-06T01:59:43.967Z,1.70
2023-03-06T02:02:15.018Z,6.10
2023-03-06T02:04:44.302Z,3.80
2023-03-06T02:07:13.068Z,2.20
2023-03-06T02:09:41.314Z,5.28
2023-03-06T02:12:12.277Z,3.58
2023-03-06T02:14:41.346Z,2.33
2023-03-06T02:17:12.042Z,2.67
2023-03-06T02:19:53.149Z,6.68
2023-03-06T02:22:21.943Z,3.33
2023-03-06T02:24:55.472Z,5.85
2023-03-06T02:27:26.386Z,4.82
2023-03-06T02:29:54.437Z,6.45
2023-03-06T02:32:22.536Z,2.92
2023-03-06T02:34:59.111Z,3.15
2023-03-06T02:37:29.314Z,7.00
2023-03-06T02:42:33.526Z,5.20
2023-03-06T02:45:03.554Z,5.68
2023-03-06T02:47:31.635Z,8.65
2023-03-06T02:50:00.196Z,4.25
2023-03-06T02:52:28.205Z,6.60
2023-03-06T02:54:56.199Z,5.38
2023-03-06T02:57:24.240Z,3.22
2023-03-06T02:59:53.864Z,3.55
2023-03-06T03:02:22.175Z,3.53
2023-03-06T03:04:50.296Z,3.45
2023-03-06T03:07:18.513Z,3.97
2023-03-06T03:09:46.549Z,3.75
2023-03-06T03:12:14.616Z,5.80
2023-03-06T03:14:42.624Z,5.65
2023-03-06T03:17:11.965Z,4.20
2023-03-06T03:19:39.939Z,3.47
2023-03-06T03:22:08.318Z,4.15
2023-03-06T03:24:36.519Z,3.88
2023-03-06T03:27:04.819Z,4.22
2023-03-06T03:29:32.900Z,3.38
2023-03-06T03:32:01.165Z,4.10
2023-03-06T03:34:33.075Z,4.22
2023-03-06T03:37:01.159Z,3.95
2023-03-06T03:39:29.312Z,2.38
2023-03-06T03:41:57.348Z,5.63
2023-03-06T03:44:25.384Z,5.22
2023-03-06T03:46:53.443Z,3.58
2023-03-06T03:49:21.542Z,3.95
2023-03-06T03:51:51.012Z,3.92
2023-03-06T03:54:19.164Z,4.20
2023-03-06T03:56:47.374Z,6.80
2023-03-06T03:59:16.744Z,5.00
2023-03-06T04:01:45.994Z,4.70
2023-03-06T04:04:14.083Z,3.33
2023-03-06T04:06:42.605Z,3.67
2023-03-06T04:09:12.023Z,2.92
2023-03-06T04:11:40.085Z,5.63
2023-03-06T04:14:11.487Z,4.07
2023-03-06T04:16:39.500Z,2.92
2023-03-06T04:19:07.539Z,6.13
2023-03-06T04:21:35.563Z,5.18
2023-03-06T04:24:03.618Z,6.93
2023-03-06T04:26:33.072Z,3.90
2023-03-06T04:29:01.093Z,7.78
2023-03-06T04:31:29.229Z,2.55
2023-03-06T04:33:57.332Z,4.25
2023-03-06T04:36:29.619Z,4.95
2023-03-06T04:38:58.248Z,2.85
2023-03-06T04:41:27.650Z,7.45
2023-03-06T04:43:59.622Z,2.83
2023-03-06T04:46:29.234Z,3.28
2023-03-06T04:48:57.315Z,2.20
2023-03-06T04:51:25.452Z,3.80
2023-03-06T04:53:53.492Z,1.08
2023-03-06T04:56:21.498Z,2.13
2023-03-06T04:58:49.544Z,2.42
2023-03-06T05:01:19.009Z,2.15
2023-03-06T05:03:47.070Z,5.38
2023-03-06T05:06:15.116Z,2.30
2023-03-06T05:08:43.389Z,3.70
2023-03-06T05:11:11.389Z,1.63
2023-03-06T05:13:39.446Z,2.38
2023-03-06T05:16:09.008Z,5.80
2023-03-06T05:18:38.859Z,6.47
2023-03-06T05:21:07.328Z,2.00
2023-03-06T05:23:38.545Z,4.35
2023-03-06T05:26:09.247Z,3.05
2023-03-06T05:28:38.375Z,4.03
2023-03-06T05:31:07.450Z,2.95
2023-03-06T05:33:36.304Z,2.50
2023-03-06T05:36:06.480Z,4.65
2023-03-06T05:41:02.202Z,5.40
2023-03-06T05:43:30.192Z,5.07
2023-03-06T05:46:05.554Z,4.15
2023-03-06T05:48:34.348Z,5.43
2023-03-06T05:51:03.646Z,2.63
2023-03-06T05:53:33.852Z,3.10
2023-03-06T05:56:03.946Z,3.88
2023-03-06T05:58:33.479Z,3.47
2023-03-06T06:01:01.857Z,4.03
2023-03-06T06:03:29.932Z,7.25
2023-03-06T06:05:57.971Z,5.30
2023-03-06T06:08:26.238Z,5.32
2023-03-06T06:10:55.636Z,6.18
2023-03-06T06:13:23.748Z,2.38
2023-03-06T06:15:52.117Z,3.20
2023-03-06T06:18:20.146Z,3.88
2023-03-06T06:20:48.277Z,3.97
2023-03-06T06:23:16.681Z,4.97
2023-03-06T06:25:44.708Z,4.78
2023-03-06T06:28:14.110Z,6.32
2023-03-06T06:30:42.161Z,4.70
2023-03-06T06:33:10.189Z,5.85
2023-03-06T06:35:38.310Z,11.80
2023-03-06T06:38:06.348Z,5.55
2023-03-06T06:40:34.410Z,3.17
2023-03-06T06:43:02.458Z,4.63
2023-03-06T06:45:31.856Z,6.78
2023-03-06T06:48:00.053Z,4.40
2023-03-06T06:50:28.085Z,3.58
2023-03-06T06:52:56.142Z,4.45
2023-03-06T06:55:24.251Z,5.97
2023-03-06T06:57:54.926Z,5.40
2023-03-06T07:00:24.005Z,6.25
2023-03-06T07:02:53.368Z,4.72
2023-03-06T07:05:22.179Z,3.22
2023-03-06T07:07:51.455Z,3.90
2023-03-06T07:10:21.021Z,7.47
2023-03-06T07:12:49.445Z,5.53
2023-03-06T07:15:19.143Z,2.30
2023-03-06T07:17:49.569Z,3.83
2023-03-06T07:20:20.514Z,5.43
2023-03-06T07:22:51.606Z,2.05
2023-03-06T07:25:22.604Z,3.50
2023-03-06T07:27:54.517Z,2.38
2023-03-06T07:30:23.476Z,4.38
2023-03-06T07:32:54.836Z,2.83
2023-03-06T07:35:24.992Z,2.80
2023-03-06T07:40:21.877Z,2.28
2023-03-06T07:42:50.018Z,1.90
2023-03-06T07:45:18.316Z,2.83
2023-03-06T07:47:46.866Z,1.45
2023-03-06T07:50:15.114Z,3.58
2023-03-06T07:52:44.505Z,2.33
2023-03-06T07:55:13.553Z,2.13
2023-03-06T07:57:41.854Z,1.40
2023-03-06T08:00:13.798Z,2.15
2023-03-06T08:02:43.279Z,1.45
2023-03-06T08:05:15.147Z,2.88
2023-03-06T08:07:45.317Z,3.42
2023-03-06T08:12:42.992Z,2.53
2023-03-06T08:15:12.493Z,2.08
2023-03-06T08:17:40.973Z,2.75
2023-03-06T08:20:11.509Z,3.75
2023-03-06T08:22:40.593Z,2.10
2023-03-06T08:25:11.669Z,3.22
2023-03-06T08:27:41.155Z,3.33
2023-03-06T08:30:10.743Z,6.45
2023-03-06T08:32:39.349Z,3.70
2023-03-06T08:35:08.463Z,2.10
2023-03-06T08:37:36.985Z,3.60
2023-03-06T08:40:05.640Z,3.28
2023-03-06T08:42:35.260Z,2.35
2023-03-06T08:45:03.430Z,4.50
2023-03-06T08:47:34.199Z,7.30
2023-03-06T08:50:02.534Z,2.72
2023-03-06T08:52:30.697Z,5.63
2023-03-06T08:55:03.475Z,3.55
2023-03-06T08:57:31.662Z,4.20
2023-03-06T09:00:01.131Z,3.08
2023-03-06T09:02:29.305Z,2.25
2023-03-06T09:05:01.391Z,12.88
2023-03-06T09:07:30.712Z,7.30
2023-03-06T09:09:59.624Z,10.20
2023-03-06T09:12:29.258Z,10.52
2023-03-06T09:15:00.249Z,3.47
2023-03-06T09:17:29.972Z,4.80
2023-03-06T09:19:58.005Z,4.15
2023-03-06T09:22:26.084Z,3.38
2023-03-06T09:24:57.795Z,5.05
2023-03-06T09:27:27.777Z,3.05
2023-03-06T09:29:55.858Z,1.95
2023-03-06T09:32:27.461Z,2.08
2023-03-06T09:34:55.647Z,3.60
2023-03-06T09:37:24.985Z,2.55
2023-03-06T09:39:53.126Z,3.00
2023-03-06T09:42:25.706Z,1.05
2023-03-06T09:44:59.615Z,0.98
2023-03-06T09:47:46.949Z,2.17
2023-03-06T09:50:25.169Z,1.23
2023-03-06T09:53:16.363Z,2.20
2023-03-06T09:55:50.227Z,1.08
2023-03-06T09:58:22.419Z,2.30
2023-03-06T10:00:58.702Z,1.55
2023-03-06T10:03:32.663Z,1.40
2023-03-06T10:07:16.092Z,3.40
2023-03-06T10:09:54.402Z,4.32
2023-03-06T10:12:27.082Z,0.85
2023-03-06T10:15:04.170Z,2.25
2023-03-06T10:17:42.313Z,3.70
2023-03-06T10:20:26.009Z,1.50
2023-03-06T10:23:06.824Z,1.63
2023-03-06T10:25:41.636Z,2.78
2023-03-06T10:28:18.268Z,2.40
2023-03-06T10:30:58.425Z,1.40
2023-03-06T10:36:06.718Z,1.90
2023-03-06T10:44:50.209Z,1.65
2023-03-06T10:47:44.216Z,2.15
2023-03-06T10:50:44.700Z,2.20
2023-03-06T10:53:35.802Z,2.53
2023-03-06T10:56:15.572Z,0.90
2023-03-06T10:59:15.369Z,1.02
2023-03-06T11:01:59.046Z,1.63
2023-03-06T11:05:11.082Z,2.42
2023-03-06T11:08:09.434Z,1.55
2023-03-06T11:10:45.867Z,1.20
2023-03-06T11:13:37.559Z,1.60
2023-03-06T11:19:24.354Z,2.03
2023-03-06T11:22:06.103Z,1.40
2023-03-06T11:24:43.442Z,1.83
2023-03-06T11:27:25.123Z,2.30
2023-03-06T11:29:56.408Z,1.63
2023-03-06T11:32:29.134Z,1.10
2023-03-06T11:35:01.310Z,1.92
2023-03-06T11:37:44.372Z,1.27
2023-03-06T11:40:19.449Z,2.25
2023-03-06T11:42:57.999Z,1.73
2023-03-06T11:45:32.235Z,1.27
2023-03-06T11:48:11.464Z,1.88
2023-03-06T11:50:43.750Z,1.67
2023-03-06T11:53:16.139Z,1.02
2023-03-06T11:56:33.242Z,1.30
2023-03-06T11:59:45.883Z,1.05
2023-03-06T12:06:04.098Z,0.75
2023-03-06T12:08:53.774Z,1.53
2023-03-06T12:11:46.817Z,1.27
2023-03-06T12:14:45.203Z,1.08
2023-03-06T12:17:37.787Z,2.03
2023-03-06T12:20:50.518Z,1.48
2023-03-06T12:27:21.614Z,3.63
2023-03-06T12:32:57.784Z,4.03
2023-03-06T12:36:19.906Z,1.30
2023-03-06T12:39:11.751Z,1.45
2023-03-06T12:41:49.616Z,0.70
2023-03-06T12:45:06.142Z,1.88
2023-03-06T12:47:49.670Z,2.10
2023-03-06T12:50:30.313Z,1.77
2023-03-06T12:53:07.782Z,1.40
2023-03-06T12:55:41.963Z,3.35
2023-03-06T12:58:36.161Z,5.85
2023-03-06T13:01:10.639Z,6.40
2023-03-06T13:04:03.265Z,9.93
2023-03-06T13:06:55.099Z,13.52
2023-03-06T13:09:53.896Z,13.80
2023-03-06T13:12:56.192Z,5.82
2023-03-06T13:15:50.672Z,7.03
2023-03-06T13:19:03.818Z,5.85
2023-03-06T13:22:17.643Z,6.95
2023-03-06T13:29:08.156Z,6.28
2023-03-06T13:32:08.876Z,4.85
2023-03-06T13:34:39.429Z,13.93
2023-03-06T13:37:40.464Z,6.28
2023-03-06T13:40:16.437Z,1.33
2023-03-06T13:43:05.036Z,5.85
2023-03-06T13:45:42.059Z,18.35
2023-03-06T13:48:45.146Z,8.40
2023-03-06T13:51:25.658Z,6.78
2023-03-06T13:54:22.085Z,7.82
2023-03-06T13:57:24.334Z,4.68
2023-03-06T14:00:25.564Z,3.88
2023-03-06T14:03:40.481Z,10.65
2023-03-06T14:07:17.887Z,4.45
2023-03-06T14:10:38.996Z,5.97
2023-03-06T14:13:19.643Z,2.35
2023-03-06T14:16:50.914Z,1.75
2023-03-06T14:19:29.708Z,5.25
2023-03-06T14:22:07.401Z,4.18
2023-03-06T14:25:04.458Z,2.95
2023-03-06T14:28:12.517Z,4.25
2023-03-06T14:30:55.010Z,2.08
2023-03-06T14:33:31.190Z,7.00
2023-03-06T14:36:02.660Z,6.22
2023-03-06T14:38:35.851Z,5.10
2023-03-06T14:41:06.382Z,3.28
2023-03-06T14:43:36.301Z,1.33
2023-03-06T14:46:07.004Z,7.25
2023-03-06T14:48:41.875Z,2.97
2023-03-06T14:51:18.425Z,2.53
2023-03-06T14:53:48.718Z,9.00
2023-03-06T14:58:55.418Z,4.45
2023-03-06T15:01:31.170Z,1.70
2023-03-06T15:04:01.750Z,2.65
2023-03-06T15:06:36.205Z,2.15
2023-03-06T15:09:10.381Z,2.60
2023-03-06T15:11:56.647Z,0.57
2023-03-06T15:14:33.390Z,2.22
2023-03-06T15:21:36.499Z,4.38
2023-03-06T15:24:33.942Z,2.80
2023-03-06T15:27:04.375Z,3.85
2023-03-06T15:29:37.729Z,1.70
2023-03-06T15:32:17.934Z,1.52
2023-03-06T15:37:28.736Z,2.25
2023-03-06T15:40:09.609Z,3.28
2023-03-06T15:42:38.360Z,2.80
2023-03-06T15:45:20.299Z,1.83
2023-03-06T15:47:50.360Z,2.10
2023-03-06T15:50:20.663Z,1.95
2023-03-06T15:52:50.324Z,5.78
2023-03-06T15:55:20.597Z,5.63
2023-03-06T15:57:52.597Z,3.70
2023-03-06T16:00:28.200Z,3.95
2023-03-06T16:02:57.370Z,5.22
2023-03-06T16:05:27.923Z,3.05
2023-03-06T16:08:04.348Z,3.72
2023-03-06T16:10:37.138Z,2.40
2023-03-06T16:14:28.298Z,1.42
2023-03-06T16:17:09.104Z,2.28
2023-03-06T16:23:01.682Z,3.13
2023-03-06T16:25:42.007Z,5.88
2023-03-06T16:34:39.878Z,52.15
2023-03-06T16:37:10.436Z,34.20
2023-03-06T16:39:38.545Z,54.33
2023-03-06T16:42:06.945Z,6.88
2023-03-06T16:44:35.289Z,17.88
2023-03-06T16:47:04.351Z,10.30
2023-03-06T16:49:33.574Z,7.55
2023-03-06T16:52:05.107Z,14.83
2023-03-06T16:54:33.301Z,8.45
2023-03-06T16:57:01.413Z,8.43
2023-03-06T16:59:29.815Z,4.03
2023-03-06T17:01:58.125Z,6.50
2023-03-06T17:04:26.296Z,10.23
2023-03-06T17:06:54.721Z,4.60
2023-03-06T17:09:24.398Z,2.17
2023-03-06T17:11:52.548Z,6.07
2023-03-06T17:14:20.813Z,12.90
2023-03-06T17:16:48.956Z,9.27
2023-03-06T17:19:17.033Z,5.45
2023-03-06T17:22:46.650Z,10.77
2023-03-06T17:26:12.694Z,4.85
2023-03-06T17:28:52.810Z,10.52
2023-03-06T17:34:19.332Z,8.60
2023-03-06T17:36:55.742Z,10.55
2023-03-06T17:39:24.492Z,14.25
2023-03-06T17:41:54.080Z,5.55
2023-03-06T17:44:22.578Z,4.20
2023-03-06T17:46:51.313Z,6.10
2023-03-06T17:49:22.401Z,6.55
2023-03-06T17:51:50.845Z,4.60
2023-03-06T17:54:19.331Z,6.57
2023-03-06T17:56:54.791Z,9.30
2023-03-06T17:59:23.368Z,5.75
2023-03-06T18:01:54.111Z,7.15
2023-03-06T18:04:22.273Z,14.18
2023-03-06T18:07:13.603Z,13.35
2023-03-06T18:09:45.443Z,5.60
2023-03-06T18:12:20.277Z,10.27
2023-03-06T18:14:56.289Z,14.50
2023-03-06T18:17:59.431Z,13.63
2023-03-06T18:20:29.981Z,15.30
2023-03-06T18:23:09.299Z,7.15
2023-03-06T18:25:47.780Z,19.33
2023-03-06T18:28:23.446Z,19.77
2023-03-06T18:30:51.642Z,13.27
2023-03-06T18:33:20.329Z,8.38
2023-03-06T18:35:53.358Z,8.55
2023-03-06T18:41:12.435Z,11.68
2023-03-06T18:43:42.843Z,8.20
2023-03-06T18:46:11.701Z,8.82
2023-03-06T18:48:40.052Z,9.07
2023-03-06T18:51:15.033Z,6.80
2023-03-06T18:53:48.834Z,14.82
2023-03-06T18:56:57.497Z,13.13
2023-03-06T18:59:29.588Z,10.88
2023-03-06T19:01:59.407Z,10.27
2023-03-06T19:04:36.560Z,11.18
2023-03-06T19:07:06.554Z,5.35
2023-03-06T19:09:41.248Z,13.98
2023-03-06T19:12:15.350Z,8.27
2023-03-06T19:14:46.774Z,7.38
2023-03-06T19:17:14.965Z,9.07
2023-03-06T19:19:52.606Z,5.93
2023-03-06T19:22:34.825Z,12.95
2023-03-06T19:25:05.490Z,14.43
2023-03-06T19:27:38.037Z,11.88
2023-03-06T19:30:18.790Z,6.70
2023-03-06T19:32:48.046Z,8.50
2023-03-06T19:35:16.372Z,9.03
2023-03-06T19:37:44.819Z,13.27
2023-03-06T19:40:13.772Z,12.15
2023-03-06T19:42:41.989Z,8.57
2023-03-06T19:45:12.734Z,12.40
2023-03-06T19:47:40.987Z,13.10
2023-03-06T19:50:10.885Z,19.63
2023-03-06T19:52:39.675Z,19.35
2023-03-06T19:55:09.839Z,15.40
2023-03-06T20:00:25.757Z,13.52
2023-03-06T20:02:55.053Z,13.18
2023-03-06T20:05:37.459Z,9.55
2023-03-06T20:08:06.056Z,8.77
2023-03-06T20:10:46.534Z,9.43
2023-03-06T20:13:15.000Z,7.90
2023-03-06T20:15:44.721Z,8.65
2023-03-06T20:18:15.790Z,8.60
2023-03-06T20:20:44.184Z,11.80
2023-03-06T20:23:34.703Z,8.93
2023-03-06T20:26:15.089Z,7.45
2023-03-06T20:28:46.363Z,6.00
2023-03-06T20:31:18.774Z,6.80
2023-03-06T20:33:51.169Z,8.40
2023-03-06T20:36:21.921Z,5.43
2023-03-06T20:39:03.824Z,8.27
2023-03-06T20:41:33.556Z,4.45
2023-03-06T20:44:03.453Z,5.85
2023-03-06T20:46:33.871Z,14.02
2023-03-06T20:49:02.688Z,11.32
2023-03-06T20:51:33.194Z,11.98
2023-03-06T20:54:02.708Z,13.90
2023-03-06T20:56:33.142Z,6.10
2023-03-06T20:59:02.026Z,11.45
2023-03-06T21:01:33.546Z,7.82
2023-03-06T21:04:05.437Z,6.60
2023-03-06T21:06:34.395Z,10.40
2023-03-06T21:09:03.883Z,8.45
2023-03-06T21:11:32.333Z,16.67
2023-03-06T21:14:01.061Z,18.42
2023-03-06T21:16:30.437Z,10.45
2023-03-06T21:19:02.008Z,11.10
2023-03-06T21:21:32.972Z,9.88
2023-03-06T21:24:01.891Z,17.25
2023-03-06T21:26:33.937Z,12.02
2023-03-06T21:29:02.954Z,8.32
2023-03-06T21:31:33.568Z,9.25
2023-03-06T21:34:05.042Z,13.88
2023-03-06T21:36:33.596Z,7.43
2023-03-06T21:39:02.354Z,6.93
2023-03-06T21:41:32.482Z,7.65
2023-03-06T21:46:29.778Z,6.13
2023-03-06T21:48:58.758Z,10.75
2023-03-06T21:51:29.384Z,7.50
2023-03-06T21:53:57.793Z,10.68
2023-03-06T21:56:28.570Z,6.88
2023-03-06T21:58:58.416Z,5.68
2023-03-06T22:01:29.045Z,6.55
2023-03-06T22:03:58.972Z,2.97
2023-03-06T22:06:32.769Z,5.13
2023-03-06T22:09:02.550Z,5.82
2023-03-06T22:11:34.590Z,5.93
2023-03-06T22:14:03.152Z,9.73
2023-03-06T22:16:31.936Z,3.50
2023-03-06T22:19:00.843Z,5.30
2023-03-06T22:21:29.143Z,7.00
2023-03-06T22:23:59.926Z,6.05
2023-03-06T22:26:29.062Z,6.05
2023-03-06T22:28:57.764Z,4.03
2023-03-06T22:31:28.592Z,5.45
2023-03-06T22:33:59.871Z,5.78
2023-03-06T22:36:30.429Z,14.88
2023-03-06T22:39:02.182Z,11.43
2023-03-06T22:41:30.534Z,8.27
2023-03-06T22:43:59.828Z,4.35
2023-03-06T22:46:28.437Z,10.45
2023-03-06T22:48:57.736Z,8.63
2023-03-06T22:51:26.302Z,14.13
2023-03-06T22:53:54.698Z,6.97
2023-03-06T22:56:24.719Z,5.45
2023-03-06T22:58:52.998Z,8.80
2023-03-06T23:01:23.527Z,7.70
2023-03-06T23:03:54.657Z,6.18
2023-03-06T23:06:25.177Z,10.00
2023-03-06T23:08:55.404Z,15.77
2023-03-06T23:11:27.915Z,3.75
2023-03-06T23:13:56.592Z,8.10
2023-03-06T23:16:25.526Z,4.57
2023-03-06T23:18:54.582Z,6.00
2023-03-06T23:21:24.452Z,7.57
2023-03-06T23:23:54.263Z,3.75
2023-03-06T23:26:26.002Z,3.75
2023-03-06T23:28:54.673Z,5.72
2023-03-06T23:31:28.692Z,3.55
2023-03-06T23:33:59.138Z,4.28
2023-03-06T23:36:27.538Z,6.35
2023-03-06T23:38:56.384Z,3.15
2023-03-06T23:41:26.617Z,7.25
2023-03-06T23:43:55.419Z,7.18
2023-03-06T23:46:23.800Z,6.65
2023-03-06T23:48:52.418Z,2.95
2023-03-06T23:51:22.671Z,6.18
2023-03-06T23:53:56.692Z,3.55
2023-03-06T23:56:27.946Z,10.35
2023-03-06T23:58:56.856Z,7.45
